sensor_id;sensor_type;location;lat;lon;timestamp;pressure;altitude;pressure_sealevel;temperature;humidity
3150;BME280;32503;47.748;8.960;2023-03-03T00:00:48;97063.84;;;5.74;61.38
3150;BME280;32503;47.748;8.960;2023-03-03T00:03:19;97061.00;;;5.70;61.59
3150;BME280;32503;47.748;8.960;2023-03-03T00:05:46;97058.78;;;5.72;61.72
3150;BME280;32503;47.748;8.960;2023-03-03T00:08:14;97059.56;;;5.73;61.52
3150;BME280;32503;47.748;8.960;2023-03-03T00:10:43;97053.28;;;5.68;61.79
3150;BME280;32503;47.748;8.960;2023-03-03T00:13:15;97053.44;;;5.63;61.55
3150;BME280;32503;47.748;8.960;2023-03-03T00:15:42;97059.09;;;5.70;61.92
3150;BME280;32503;47.748;8.960;2023-03-03T00:18:21;97059.09;;;5.70;61.52
3150;BME280;32503;47.748;8.960;2023-03-03T00:20:52;97062.56;;;5.71;61.78
3150;BME280;32503;47.748;8.960;2023-03-03T00:23:29;97045.06;;;5.65;61.54
3150;BME280;32503;47.748;8.960;2023-03-03T00:25:58;97066.19;;;5.75;61.64
3150;BME280;32503;47.748;8.960;2023-03-03T00:28:29;97062.09;;;5.69;61.90
3150;BME280;32503;47.748;8.960;2023-03-03T00:30:58;97060.19;;;5.69;61.96
3150;BME280;32503;47.748;8.960;2023-03-03T00:33:30;97066.53;;;5.65;61.96
3150;BME280;32503;47.748;8.960;2023-03-03T00:36:30;97053.13;;;5.56;62.28
3150;BME280;32503;47.748;8.960;2023-03-03T00:39:21;97062.56;;;5.62;61.72
3150;BME280;32503;47.748;8.960;2023-03-03T00:41:53;97055.50;;;5.58;61.63
3150;BME280;32503;47.748;8.960;2023-03-03T00:44:45;97056.91;;;5.55;62.63
3150;BME280;32503;47.748;8.960;2023-03-03T00:47:29;97068.91;;;5.58;62.31
3150;BME280;32503;47.748;8.960;2023-03-03T00:50:24;97057.81;;;5.50;62.22
3150;BME280;32503;47.748;8.960;2023-03-03T00:53:05;97060.03;;;5.57;62.27
3150;BME280;32503;47.748;8.960;2023-03-03T00:55:34;97055.34;;;5.54;61.88
3150;BME280;32503;47.748;8.960;2023-03-03T00:58:03;97060.84;;;5.58;62.47
3150;BME280;32503;47.748;8.960;2023-03-03T01:00:30;97061.63;;;5.58;62.05
3150;BME280;32503;47.748;8.960;2023-03-03T01:03:00;97050.59;;;5.51;62.05
3150;BME280;32503;47.748;8.960;2023-03-03T01:05:28;97070.31;;;5.64;62.11
3150;BME280;32503;47.748;8.960;2023-03-03T01:07:55;97067.94;;;5.62;62.16
3150;BME280;32503;47.748;8.960;2023-03-03T01:10:23;97063.34;;;5.63;61.85
3150;BME280;32503;47.748;8.960;2023-03-03T01:12:50;97066.03;;;5.63;62.00
3150;BME280;32503;47.748;8.960;2023-03-03T01:15:19;97060.34;;;5.64;61.54
3150;BME280;32503;47.748;8.960;2023-03-03T01:17:46;97054.69;;;5.57;62.07
3150;BME280;32503;47.748;8.960;2023-03-03T01:20:15;97060.03;;;5.57;62.32
3150;BME280;32503;47.748;8.960;2023-03-03T01:22:42;97047.75;;;5.56;61.99
3150;BME280;32503;47.748;8.960;2023-03-03T01:25:09;97051.53;;;5.55;62.24
3150;BME280;32503;47.748;8.960;2023-03-03T01:27:37;97059.56;;;5.55;62.55
3150;BME280;32503;47.748;8.960;2023-03-03T01:30:06;97057.03;;;5.59;62.21
3150;BME280;32503;47.748;8.960;2023-03-03T01:32:35;97054.22;;;5.55;61.74
3150;BME280;32503;47.748;8.960;2023-03-03T01:35:04;97055.00;;;5.56;62.44
3150;BME280;32503;47.748;8.960;2023-03-03T01:37:33;97060.69;;;5.54;62.48
3150;BME280;32503;47.748;8.960;2023-03-03T01:40:00;97058.63;;;5.51;62.51
3150;BME280;32503;47.748;8.960;2023-03-03T01:42:28;97058.16;;;5.49;62.41
3150;BME280;32503;47.748;8.960;2023-03-03T01:45:24;97055.00;;;5.47;62.57
3150;BME280;32503;47.748;8.960;2023-03-03T01:47:59;97055.00;;;5.47;62.59
3150;BME280;32503;47.748;8.960;2023-03-03T01:50:38;97058.78;;;5.46;62.47
3150;BME280;32503;47.748;8.960;2023-03-03T01:53:14;97053.13;;;5.47;62.71
3150;BME280;32503;47.748;8.960;2023-03-03T01:55:45;97054.22;;;5.46;62.68
3150;BME280;32503;47.748;8.960;2023-03-03T01:58:16;97051.84;;;5.45;62.57
3150;BME280;32503;47.748;8.960;2023-03-03T02:00:49;97045.53;;;5.41;62.60
3150;BME280;32503;47.748;8.960;2023-03-03T02:03:20;97052.81;;;5.49;62.93
3150;BME280;32503;47.748;8.960;2023-03-03T02:05:49;97047.44;;;5.49;62.94
3150;BME280;32503;47.748;8.960;2023-03-03T02:08:24;97016.97;;;5.27;62.35
3150;BME280;32503;47.748;8.960;2023-03-03T02:10:54;97041.94;;;5.45;62.76
3150;BME280;32503;47.748;8.960;2023-03-03T02:13:22;97042.53;;;5.51;62.12
3150;BME280;32503;47.748;8.960;2023-03-03T02:15:50;97043.16;;;5.48;62.82
3150;BME280;32503;47.748;8.960;2023-03-03T02:18:19;97046.94;;;5.47;63.12
3150;BME280;32503;47.748;8.960;2023-03-03T02:20:54;97048.53;;;5.48;62.67
3150;BME280;32503;47.748;8.960;2023-03-03T02:23:29;97043.16;;;5.48;62.32
3150;BME280;32503;47.748;8.960;2023-03-03T02:26:13;97043.63;;;5.50;62.34
3150;BME280;32503;47.748;8.960;2023-03-03T02:28:42;97048.06;;;5.46;63.12
3150;BME280;32503;47.748;8.960;2023-03-03T02:31:14;97041.28;;;5.48;63.02
3150;BME280;32503;47.748;8.960;2023-03-03T02:33:44;97042.53;;;5.51;62.65
3150;BME280;32503;47.748;8.960;2023-03-03T02:36:13;97043.63;;;5.50;62.63
3150;BME280;32503;47.748;8.960;2023-03-03T02:38:46;97041.94;;;5.45;62.46
3150;BME280;32503;47.748;8.960;2023-03-03T02:41:26;97038.75;;;5.43;62.45
3150;BME280;32503;47.748;8.960;2023-03-03T02:43:58;97035.28;;;5.43;63.22
3150;BME280;32503;47.748;8.960;2023-03-03T02:46:26;97037.97;;;5.43;62.29
3150;BME280;32503;47.748;8.960;2023-03-03T02:48:53;97035.75;;;5.45;62.65
3150;BME280;32503;47.748;8.960;2023-03-03T02:51:20;97033.06;;;5.45;62.54
3150;BME280;32503;47.748;8.960;2023-03-03T02:53:48;97041.78;;;5.42;62.40
3150;BME280;32503;47.748;8.960;2023-03-03T02:56:16;97044.44;;;5.42;62.75
3150;BME280;32503;47.748;8.960;2023-03-03T02:58:43;97039.09;;;5.42;62.93
3150;BME280;32503;47.748;8.960;2023-03-03T03:01:11;97033.72;;;5.42;63.00
3150;BME280;32503;47.748;8.960;2023-03-03T03:03:38;97034.81;;;5.41;62.81
3150;BME280;32503;47.748;8.960;2023-03-03T03:06:06;97041.28;;;5.40;63.02
3150;BME280;32503;47.748;8.960;2023-03-03T03:08:33;97046.94;;;5.38;63.10
3150;BME280;32503;47.748;8.960;2023-03-03T03:11:00;97024.25;;;5.36;63.09
3150;BME280;32503;47.748;8.960;2023-03-03T03:13:29;97032.44;;;5.39;62.86
3150;BME280;32503;47.748;8.960;2023-03-03T03:15:56;97028.53;;;5.37;63.02
3150;BME280;32503;47.748;8.960;2023-03-03T03:18:24;97031.03;;;5.33;62.75
3150;BME280;32503;47.748;8.960;2023-03-03T03:20:51;97028.38;;;5.42;63.01
3150;BME280;32503;47.748;8.960;2023-03-03T03:23:18;97029.47;;;5.41;62.72
3150;BME280;32503;47.748;8.960;2023-03-03T03:25:46;97027.25;;;5.43;62.29
3150;BME280;32503;47.748;8.960;2023-03-03T03:28:15;97027.09;;;5.39;62.29
3150;BME280;32503;47.748;8.960;2023-03-03T03:30:44;97032.91;;;5.32;63.25
3150;BME280;32503;47.748;8.960;2023-03-03T03:33:12;97027.25;;;5.34;62.92
3150;BME280;32503;47.748;8.960;2023-03-03T03:35:39;97025.19;;;5.31;63.14
3150;BME280;32503;47.748;8.960;2023-03-03T03:38:10;97005.78;;;5.17;63.25
3150;BME280;32503;47.748;8.960;2023-03-03T03:40:38;97030.88;;;5.29;63.40
3150;BME280;32503;47.748;8.960;2023-03-03T03:43:05;97039.72;;;5.30;63.62
3150;BME280;32503;47.748;8.960;2023-03-03T03:45:32;97038.44;;;5.27;63.52
3150;BME280;32503;47.748;8.960;2023-03-03T03:48:01;97033.56;;;5.29;63.38
3150;BME280;32503;47.748;8.960;2023-03-03T03:50:28;97040.97;;;5.32;63.37
3150;BME280;32503;47.748;8.960;2023-03-03T03:52:55;97034.34;;;5.30;63.08
3150;BME280;32503;47.748;8.960;2023-03-03T03:55:23;97033.56;;;5.29;63.46
3150;BME280;32503;47.748;8.960;2023-03-03T03:57:50;97034.03;;;5.31;63.19
3150;BME280;32503;47.748;8.960;2023-03-03T04:00:17;97029.78;;;5.30;63.23
3150;BME280;32503;47.748;8.960;2023-03-03T04:02:44;97030.38;;;5.27;63.56
3150;BME280;32503;47.748;8.960;2023-03-03T04:05:13;97031.34;;;5.23;63.69
3150;BME280;32503;47.748;8.960;2023-03-03T04:07:40;97036.09;;;5.26;63.79
3150;BME280;32503;47.748;8.960;2023-03-03T04:10:09;97040.50;;;5.30;63.72
3150;BME280;32503;47.748;8.960;2023-03-03T04:12:36;97033.56;;;5.29;63.66
3150;BME280;32503;47.748;8.960;2023-03-03T04:15:06;97022.84;;;5.29;63.98
3150;BME280;32503;47.748;8.960;2023-03-03T04:17:35;97008.63;;;5.20;63.40
3150;BME280;32503;47.748;8.960;2023-03-03T04:20:03;97030.53;;;5.31;63.43
3150;BME280;32503;47.748;8.960;2023-03-03T04:22:32;97033.56;;;5.29;63.55
3150;BME280;32503;47.748;8.960;2023-03-03T04:25:01;97022.84;;;5.21;63.75
3150;BME280;32503;47.748;8.960;2023-03-03T04:27:30;97035.13;;;5.30;63.62
3150;BME280;32503;47.748;8.960;2023-03-03T04:29:57;97037.19;;;5.25;63.85
3150;BME280;32503;47.748;8.960;2023-03-03T04:32:24;97037.66;;;5.18;63.68
3150;BME280;32503;47.748;8.960;2023-03-03T04:34:52;97041.09;;;5.19;64.22
3150;BME280;32503;47.748;8.960;2023-03-03T04:37:19;97033.88;;;5.19;63.77
3150;BME280;32503;47.748;8.960;2023-03-03T04:39:48;97040.63;;;5.17;64.12
3150;BME280;32503;47.748;8.960;2023-03-03T04:42:15;97035.59;;;5.15;63.83
3150;BME280;32503;47.748;8.960;2023-03-03T04:44:42;97042.53;;;5.16;63.64
3150;BME280;32503;47.748;8.960;2023-03-03T04:47:09;97041.44;;;5.17;63.56
3150;BME280;32503;47.748;8.960;2023-03-03T04:49:37;97041.44;;;5.17;63.10
3150;BME280;32503;47.748;8.960;2023-03-03T04:52:04;97041.44;;;5.17;63.42
3150;BME280;32503;47.748;8.960;2023-03-03T04:54:32;97049.94;;;5.19;63.64
3150;BME280;32503;47.748;8.960;2023-03-03T04:57:00;97049.81;;;5.24;63.88
3150;BME280;32503;47.748;8.960;2023-03-03T04:59:27;97047.91;;;5.25;63.51
3150;BME280;32503;47.748;8.960;2023-03-03T05:01:54;97046.81;;;5.26;64.02
3150;BME280;32503;47.748;8.960;2023-03-03T05:04:21;97049.31;;;5.22;63.89
3150;BME280;32503;47.748;8.960;2023-03-03T05:06:49;97044.59;;;5.19;63.88
3150;BME280;32503;47.748;8.960;2023-03-03T05:09:16;97044.28;;;5.21;63.76
3150;BME280;32503;47.748;8.960;2023-03-03T05:11:43;97042.22;;;5.18;64.25
3150;BME280;32503;47.748;8.960;2023-03-03T05:14:11;97043.31;;;5.17;64.31
3150;BME280;32503;47.748;8.960;2023-03-03T05:16:38;97040.00;;;5.20;63.82
3150;BME280;32503;47.748;8.960;2023-03-03T05:19:06;97044.75;;;5.23;64.18
3150;BME280;32503;47.748;8.960;2023-03-03T05:21:33;97043.00;;;5.18;64.11
3150;BME280;32503;47.748;8.960;2023-03-03T05:24:00;97043.47;;;5.20;64.23
3150;BME280;32503;47.748;8.960;2023-03-03T05:26:27;97045.06;;;5.21;63.97
3150;BME280;32503;47.748;8.960;2023-03-03T05:28:54;97050.44;;;5.21;64.13
3150;BME280;32503;47.748;8.960;2023-03-03T05:31:23;97044.75;;;5.14;64.82
3150;BME280;32503;47.748;8.960;2023-03-03T05:33:52;97060.34;;;5.12;64.48
3150;BME280;32503;47.748;8.960;2023-03-03T05:36:19;97055.00;;;5.12;64.47
3150;BME280;32503;47.748;8.960;2023-03-03T05:38:46;97056.56;;;5.13;64.76
3150;BME280;32503;47.748;8.960;2023-03-03T05:41:13;97055.94;;;5.16;64.38
3150;BME280;32503;47.748;8.960;2023-03-03T05:43:40;97058.47;;;5.21;64.32
3150;BME280;32503;47.748;8.960;2023-03-03T05:46:08;97057.19;;;5.19;64.18
3150;BME280;32503;47.748;8.960;2023-03-03T05:48:37;97064.91;;;5.20;64.21
3150;BME280;32503;47.748;8.960;2023-03-03T05:51:04;97072.97;;;5.20;64.32
3150;BME280;32503;47.748;8.960;2023-03-03T05:53:32;97069.81;;;5.18;64.73
3150;BME280;32503;47.748;8.960;2023-03-03T05:55:59;97066.66;;;5.16;64.77
3150;BME280;32503;47.748;8.960;2023-03-03T05:58:27;97068.09;;;5.13;64.83
3150;BME280;32503;47.748;8.960;2023-03-03T06:00:54;97066.34;;;5.09;65.00
3150;BME280;32503;47.748;8.960;2023-03-03T06:03:21;97058.59;;;5.07;64.52
3150;BME280;32503;47.748;8.960;2023-03-03T06:05:50;97066.66;;;5.16;64.86
3150;BME280;32503;47.748;8.960;2023-03-03T06:08:17;97076.44;;;5.12;64.47
3150;BME280;32503;47.748;8.960;2023-03-03T06:10:44;97075.94;;;5.10;64.47
3150;BME280;32503;47.748;8.960;2023-03-03T06:13:11;97072.31;;;5.06;64.76
3150;BME280;32503;47.748;8.960;2023-03-03T06:15:38;97075.31;;;5.04;65.16
3150;BME280;32503;47.748;8.960;2023-03-03T06:18:05;97082.56;;;5.04;65.00
3150;BME280;32503;47.748;8.960;2023-03-03T06:20:33;97085.84;;;5.01;64.74
3150;BME280;32503;47.748;8.960;2023-03-03T06:23:01;97079.72;;;5.00;65.07
3150;BME280;32503;47.748;8.960;2023-03-03T06:25:28;97085.06;;;5.00;65.14
3150;BME280;32503;47.748;8.960;2023-03-03T06:27:55;97089.16;;;4.98;65.19
3150;BME280;32503;47.748;8.960;2023-03-03T06:30:23;97093.72;;;4.97;65.03
3150;BME280;32503;47.748;8.960;2023-03-03T06:32:51;97093.25;;;4.95;65.18
3150;BME280;32503;47.748;8.960;2023-03-03T06:35:18;97096.72;;;4.96;65.24
3150;BME280;32503;47.748;8.960;2023-03-03T06:37:45;97100.03;;;4.92;65.43
3150;BME280;32503;47.748;8.960;2023-03-03T06:40:17;97111.09;;;5.00;65.42
3150;BME280;32503;47.748;8.960;2023-03-03T06:42:44;97111.56;;;5.02;64.93
3150;BME280;32503;47.748;8.960;2023-03-03T06:45:12;97110.91;;;4.96;65.55
3150;BME280;32503;47.748;8.960;2023-03-03T06:47:39;97116.31;;;5.05;64.99
3150;BME280;32503;47.748;8.960;2023-03-03T06:50:08;97112.47;;;4.97;65.02
3150;BME280;32503;47.748;8.960;2023-03-03T06:52:36;97110.78;;;5.01;65.05
3150;BME280;32503;47.748;8.960;2023-03-03T06:55:11;97119.00;;;5.05;65.42
3150;BME280;32503;47.748;8.960;2023-03-03T06:57:40;97117.56;;;5.07;65.07
3150;BME280;32503;47.748;8.960;2023-03-03T07:00:17;97118.34;;;5.08;65.26
3150;BME280;32503;47.748;8.960;2023-03-03T07:02:46;97129.56;;;5.19;64.74
3150;BME280;32503;47.748;8.960;2023-03-03T07:05:16;97131.78;;;5.25;64.46
3150;BME280;32503;47.748;8.960;2023-03-03T07:07:44;97137.16;;;5.34;64.19
3150;BME280;32503;47.748;8.960;2023-03-03T07:10:22;97134.78;;;5.32;64.33
3150;BME280;32503;47.748;8.960;2023-03-03T07:12:51;97136.69;;;5.32;64.47
3150;BME280;32503;47.748;8.960;2023-03-03T07:15:21;97136.53;;;5.37;64.23
3150;BME280;32503;47.748;8.960;2023-03-03T07:17:54;97144.28;;;5.39;64.15
3150;BME280;32503;47.748;8.960;2023-03-03T07:20:27;97138.91;;;5.39;64.31
3150;BME280;32503;47.748;8.960;2023-03-03T07:22:56;97141.44;;;5.44;63.72
3150;BME280;32503;47.748;8.960;2023-03-03T07:25:29;97140.31;;;5.45;63.99
3150;BME280;32503;47.748;8.960;2023-03-03T07:28:06;97138.47;;;5.45;63.82
3150;BME280;32503;47.748;8.960;2023-03-03T07:30:37;97147.13;;;5.51;64.19
3150;BME280;32503;47.748;8.960;2023-03-03T07:33:07;97149.81;;;5.60;63.86
3150;BME280;32503;47.748;8.960;2023-03-03T07:35:45;97148.56;;;5.66;63.91
3150;BME280;32503;47.748;8.960;2023-03-03T07:38:24;97150.00;;;5.72;63.46
3150;BME280;32503;47.748;8.960;2023-03-03T07:40:57;97138.94;;;5.74;63.34
3150;BME280;32503;47.748;8.960;2023-03-03T07:43:33;97137.69;;;5.80;63.73
3150;BME280;32503;47.748;8.960;2023-03-03T07:46:19;97143.34;;;5.87;63.21
3150;BME280;32503;47.748;8.960;2023-03-03T07:48:48;97148.44;;;5.97;62.38
3150;BME280;32503;47.748;8.960;2023-03-03T07:51:19;97142.09;;;5.93;62.64
3150;BME280;32503;47.748;8.960;2023-03-03T07:53:48;97146.53;;;6.06;62.62
3150;BME280;32503;47.748;8.960;2023-03-03T07:56:28;97142.13;;;6.11;62.33
3150;BME280;32503;47.748;8.960;2023-03-03T07:58:57;97155.50;;;6.19;62.46
3150;BME280;32503;47.748;8.960;2023-03-03T08:01:37;97162.31;;;6.17;61.72
3150;BME280;32503;47.748;8.960;2023-03-03T08:04:17;97168.63;;;6.21;61.77
3150;BME280;32503;47.748;8.960;2023-03-03T08:06:51;97161.53;;;6.25;61.67
3150;BME280;32503;47.748;8.960;2023-03-03T08:09:43;97171.44;;;6.33;61.60
3150;BME280;32503;47.748;8.960;2023-03-03T08:12:39;97172.22;;;6.42;61.01
3150;BME280;32503;47.748;8.960;2023-03-03T08:15:27;97175.84;;;6.47;60.71
3150;BME280;32503;47.748;8.960;2023-03-03T08:18:01;97171.09;;;6.52;60.73
3150;BME280;32503;47.748;8.960;2023-03-03T08:20:44;97177.88;;;6.58;61.04
3150;BME280;32503;47.748;8.960;2023-03-03T08:23:14;97171.84;;;6.61;61.12
3150;BME280;32503;47.748;8.960;2023-03-03T08:25:42;97173.72;;;6.70;60.43
3150;BME280;32503;47.748;8.960;2023-03-03T08:28:09;97178.47;;;6.73;60.62
3150;BME280;32503;47.748;8.960;2023-03-03T08:30:38;97185.09;;;6.75;59.57
3150;BME280;32503;47.748;8.960;2023-03-03T08:33:06;97180.66;;;6.79;59.73
3150;BME280;32503;47.748;8.960;2023-03-03T08:35:33;97171.66;;;6.75;59.36
3150;BME280;32503;47.748;8.960;2023-03-03T08:38:00;97179.88;;;6.70;59.59
3150;BME280;32503;47.748;8.960;2023-03-03T08:40:28;97179.56;;;6.72;59.08
3150;BME280;32503;47.748;8.960;2023-03-03T08:42:55;97164.72;;;6.74;59.40
3150;BME280;32503;47.748;8.960;2023-03-03T08:45:23;97172.44;;;6.76;59.34
3150;BME280;32503;47.748;8.960;2023-03-03T08:47:52;97177.31;;;6.82;58.78
3150;BME280;32503;47.748;8.960;2023-03-03T08:50:20;97172.41;;;6.84;59.32
3150;BME280;32503;47.748;8.960;2023-03-03T08:52:47;97180.97;;;6.87;58.61
3150;BME280;32503;47.748;8.960;2023-03-03T08:55:14;97175.25;;;6.88;58.62
3150;BME280;32503;47.748;8.960;2023-03-03T08:57:41;97179.19;;;6.91;58.69
3150;BME280;32503;47.748;8.960;2023-03-03T09:00:13;97171.31;;;6.86;59.11
3150;BME280;32503;47.748;8.960;2023-03-03T09:02:42;97178.88;;;6.92;59.29
3150;BME280;32503;47.748;8.960;2023-03-03T09:05:11;97181.56;;;6.92;59.06
3150;BME280;32503;47.748;8.960;2023-03-03T09:07:39;97181.88;;;6.91;58.49
3150;BME280;32503;47.748;8.960;2023-03-03T09:10:08;97181.88;;;6.91;58.97
3150;BME280;32503;47.748;8.960;2023-03-03T09:12:38;97183.28;;;6.97;58.28
3150;BME280;32503;47.748;8.960;2023-03-03T09:15:20;97172.03;;;7.03;58.48
3150;BME280;32503;47.748;8.960;2023-03-03T09:17:49;97164.28;;;7.02;58.38
3150;BME280;32503;47.748;8.960;2023-03-03T09:20:34;97171.66;;;7.14;57.99
3150;BME280;32503;47.748;8.960;2023-03-03T09:23:33;97175.13;;;7.14;58.29
3150;BME280;32503;47.748;8.960;2023-03-03T09:26:24;97192.69;;;7.20;58.16
3150;BME280;32503;47.748;8.960;2023-03-03T09:28:55;97180.47;;;7.23;58.22
3150;BME280;32503;47.748;8.960;2023-03-03T09:31:27;97175.91;;;7.24;58.25
3150;BME280;32503;47.748;8.960;2023-03-03T09:33:56;97187.84;;;7.35;57.83
3150;BME280;32503;47.748;8.960;2023-03-03T09:36:28;97188.13;;;7.42;57.49
3150;BME280;32503;47.748;8.960;2023-03-03T09:38:57;97187.75;;;7.52;58.04
3150;BME280;32503;47.748;8.960;2023-03-03T09:48:14;97193.56;;;8.05;56.74
3150;BME280;32503;47.748;8.960;2023-03-03T09:50:56;97201.44;;;8.31;55.90
3150;BME280;32503;47.748;8.960;2023-03-03T09:53:42;97199.06;;;8.51;55.29
3150;BME280;32503;47.748;8.960;2023-03-03T09:56:21;97188.66;;;8.62;54.82
3150;BME280;32503;47.748;8.960;2023-03-03T09:59:07;97196.22;;;8.81;54.37
3150;BME280;32503;47.748;8.960;2023-03-03T10:01:49;97198.81;;;8.89;53.74
3150;BME280;32503;47.748;8.960;2023-03-03T10:04:47;97194.66;;;9.04;53.45
3150;BME280;32503;47.748;8.960;2023-03-03T10:07:31;97192.09;;;9.08;53.31
3150;BME280;32503;47.748;8.960;2023-03-03T10:10:28;97192.09;;;9.20;52.69
3150;BME280;32503;47.748;8.960;2023-03-03T10:13:12;97197.84;;;9.31;52.72
3150;BME280;32503;47.748;8.960;2023-03-03T10:15:51;97189.06;;;9.46;51.98
3150;BME280;32503;47.748;8.960;2023-03-03T10:18:33;97188.63;;;9.57;51.49
3150;BME280;32503;47.748;8.960;2023-03-03T10:21:10;97182.88;;;9.58;51.33
3150;BME280;32503;47.748;8.960;2023-03-03T10:23:54;97177.56;;;9.74;51.13
3150;BME280;32503;47.748;8.960;2023-03-03T10:29:45;97194.44;;;9.71;50.55
3150;BME280;32503;47.748;8.960;2023-03-03T10:32:45;97191.50;;;9.76;49.64
3150;BME280;32503;47.748;8.960;2023-03-03T10:35:49;97183.94;;;9.82;50.16
3150;BME280;32503;47.748;8.960;2023-03-03T10:38:33;97187.53;;;9.86;50.30
3150;BME280;32503;47.748;8.960;2023-03-03T10:41:38;97188.31;;;9.99;50.37
3150;BME280;32503;47.748;8.960;2023-03-03T10:47:47;97192.38;;;10.21;49.74
3150;BME280;32503;47.748;8.960;2023-03-03T10:50:24;97189.44;;;10.26;49.98
3150;BME280;32503;47.748;8.960;2023-03-03T10:53:11;97190.00;;;10.32;49.15
3150;BME280;32503;47.748;8.960;2023-03-03T10:55:55;97186.06;;;10.29;48.77
3150;BME280;32503;47.748;8.960;2023-03-03T10:58:44;97191.59;;;10.20;48.64
3150;BME280;32503;47.748;8.960;2023-03-03T11:01:25;97182.00;;;10.23;49.16
3150;BME280;32503;47.748;8.960;2023-03-03T11:04:22;97178.97;;;10.24;48.86
3150;BME280;32503;47.748;8.960;2023-03-03T11:06:56;97172.31;;;10.06;49.25
3150;BME280;32503;47.748;8.960;2023-03-03T11:09:43;97173.91;;;9.95;49.20
3150;BME280;32503;47.748;8.960;2023-03-03T11:12:27;97174.88;;;9.62;49.68
3150;BME280;32503;47.748;8.960;2023-03-03T11:15:21;97171.84;;;9.51;50.29
3150;BME280;32503;47.748;8.960;2023-03-03T11:18:14;97173.09;;;9.29;50.92
3150;BME280;32503;47.748;8.960;2023-03-03T11:20:50;97176.47;;;9.01;51.42
3150;BME280;32503;47.748;8.960;2023-03-03T11:26:28;97179.13;;;8.77;52.44
3150;BME280;32503;47.748;8.960;2023-03-03T11:29:15;97180.88;;;8.60;52.61
3150;BME280;32503;47.748;8.960;2023-03-03T11:31:49;97175.50;;;8.60;52.67
3150;BME280;32503;47.748;8.960;2023-03-03T11:34:41;97169.44;;;8.63;53.16
3150;BME280;32503;47.748;8.960;2023-03-03T11:37:16;97154.66;;;8.82;52.49
3150;BME280;32503;47.748;8.960;2023-03-03T11:39:49;97166.13;;;9.16;52.12
3150;BME280;32503;47.748;8.960;2023-03-03T11:42:25;97162.31;;;9.17;51.56
3150;BME280;32503;47.748;8.960;2023-03-03T11:44:55;97162.75;;;9.19;51.89
3150;BME280;32503;47.748;8.960;2023-03-03T11:47:29;97155.09;;;8.96;51.64
3150;BME280;32503;47.748;8.960;2023-03-03T11:50:04;97163.63;;;8.73;52.83
3150;BME280;32503;47.748;8.960;2023-03-03T11:52:42;97151.53;;;9.04;52.69
3150;BME280;32503;47.748;8.960;2023-03-03T11:55:18;97146.69;;;9.35;52.30
3150;BME280;32503;47.748;8.960;2023-03-03T11:57:51;97154.41;;;9.61;51.36
3150;BME280;32503;47.748;8.960;2023-03-03T12:00:27;97144.09;;;9.26;51.59
3150;BME280;32503;47.748;8.960;2023-03-03T12:03:17;97146.91;;;9.29;51.59
3150;BME280;32503;47.748;8.960;2023-03-03T12:09:19;97137.81;;;9.34;52.15
3150;BME280;32503;47.748;8.960;2023-03-03T12:11:52;97143.53;;;9.20;52.31
3150;BME280;32503;47.748;8.960;2023-03-03T12:14:49;97131.75;;;8.88;52.83
3150;BME280;32503;47.748;8.960;2023-03-03T12:17:38;97136.44;;;8.91;52.50
3150;BME280;32503;47.748;8.960;2023-03-03T12:20:17;97130.81;;;8.71;53.15
3150;BME280;32503;47.748;8.960;2023-03-03T12:23:03;97134.03;;;8.19;54.47
3150;BME280;32503;47.748;8.960;2023-03-03T12:25:39;97130.59;;;8.64;53.59
3150;BME280;32503;47.748;8.960;2023-03-03T12:28:12;97130.16;;;8.75;53.66
3150;BME280;32503;47.748;8.960;2023-03-03T12:31:08;97123.78;;;8.91;53.11
3150;BME280;32503;47.748;8.960;2023-03-03T12:33:51;97121.75;;;9.13;52.40
3150;BME280;32503;47.748;8.960;2023-03-03T12:36:51;97121.16;;;9.44;52.24
3150;BME280;32503;47.748;8.960;2023-03-03T12:39:43;97122.31;;;9.72;51.42
3150;BME280;32503;47.748;8.960;2023-03-03T12:42:24;97126.47;;;9.81;50.71
3150;BME280;32503;47.748;8.960;2023-03-03T12:45:06;97116.16;;;9.59;51.26
3150;BME280;32503;47.748;8.960;2023-03-03T12:47:39;97119.81;;;9.14;52.39
3150;BME280;32503;47.748;8.960;2023-03-03T12:50:29;97117.34;;;9.21;52.71
3150;BME280;32503;47.748;8.960;2023-03-03T12:53:11;97114.31;;;9.22;52.45
3150;BME280;32503;47.748;8.960;2023-03-03T12:55:51;97114.22;;;9.19;53.03
3150;BME280;32503;47.748;8.960;2023-03-03T12:58:33;97114.88;;;8.91;52.73
3150;BME280;32503;47.748;8.960;2023-03-03T13:01:19;97121.16;;;8.70;53.61
3150;BME280;32503;47.748;8.960;2023-03-03T13:03:56;97115.47;;;8.84;53.65
3150;BME280;32503;47.748;8.960;2023-03-03T13:06:30;97115.00;;;8.95;53.41
3150;BME280;32503;47.748;8.960;2023-03-03T13:09:16;97109.03;;;8.64;54.25
3150;BME280;32503;47.748;8.960;2023-03-03T13:12:03;97111.72;;;8.64;54.36
3150;BME280;32503;47.748;8.960;2023-03-03T13:14:40;97110.16;;;8.76;54.02
3150;BME280;32503;47.748;8.960;2023-03-03T13:17:20;97110.50;;;8.86;53.96
3150;BME280;32503;47.748;8.960;2023-03-03T13:19:53;97116.66;;;8.75;53.81
3150;BME280;32503;47.748;8.960;2023-03-03T13:22:35;97116.56;;;8.83;53.89
3150;BME280;32503;47.748;8.960;2023-03-03T13:25:18;97115.47;;;8.39;54.17
3150;BME280;32503;47.748;8.960;2023-03-03T13:27:55;97119.25;;;8.59;54.47
3150;BME280;32503;47.748;8.960;2023-03-03T13:30:29;97107.38;;;8.72;54.08
3150;BME280;32503;47.748;8.960;2023-03-03T13:33:01;97109.97;;;8.81;53.65
3150;BME280;32503;47.748;8.960;2023-03-03T13:35:41;97109.16;;;8.80;53.26
3150;BME280;32503;47.748;8.960;2023-03-03T13:38:13;97101.06;;;8.92;53.55
3150;BME280;32503;47.748;8.960;2023-03-03T13:40:47;97115.56;;;8.88;53.44
3150;BME280;32503;47.748;8.960;2023-03-03T13:43:22;97111.84;;;8.92;53.65
3150;BME280;32503;47.748;8.960;2023-03-03T13:46:00;97105.91;;;9.11;53.11
3150;BME280;32503;47.748;8.960;2023-03-03T13:49:04;97111.63;;;9.22;52.58
3150;BME280;32503;47.748;8.960;2023-03-03T13:51:42;97112.84;;;9.37;52.21
3150;BME280;32503;47.748;8.960;2023-03-03T13:54:48;97111.50;;;9.31;52.37
3150;BME280;32503;47.748;8.960;2023-03-03T13:57:57;97109.44;;;9.40;52.50
3150;BME280;32503;47.748;8.960;2023-03-03T14:00:51;97106.31;;;9.38;53.01
3150;BME280;32503;47.748;8.960;2023-03-03T14:03:45;97110.69;;;9.43;52.66
3150;BME280;32503;47.748;8.960;2023-03-03T14:06:17;97099.56;;;9.44;52.38
3150;BME280;32503;47.748;8.960;2023-03-03T14:09:04;97102.25;;;9.57;51.81
3150;BME280;32503;47.748;8.960;2023-03-03T14:11:43;97093.31;;;9.68;52.43
3150;BME280;32503;47.748;8.960;2023-03-03T14:14:23;97092.03;;;9.78;52.14
3150;BME280;32503;47.748;8.960;2023-03-03T14:17:00;97089.34;;;9.78;51.49
3150;BME280;32503;47.748;8.960;2023-03-03T14:19:33;97084.09;;;9.70;51.69